Terminal Aerodrome Forecast
Issued by NWS

Home | Current Version | Previous Version | Graphics & Text | Print | Product List | Glossary On
Versions: 1 2 3 4 5 6 7 8 9 10 11 12 13 14
224
FTUS43 KIWX 241720
TAFSBN
TAF
KSBN 241720Z 2418/2518 11012KT P6SM SKC
     FM250800 15008KT P6SM BKN025=

USA.gov is the U.S. government's official web portal to all federal, state and local government web resources and services.